sensor_id;sensor_type;location;lat;lon;timestamp;P1;durP1;ratioP1;P2;durP2;ratioP2
5553;SDS011;2800;49.528;8.666;2024-03-08T00:01:39;36.43;;;22.80;;
5553;SDS011;2800;49.528;8.666;2024-03-08T00:04:05;32.70;;;22.43;;
5553;SDS011;2800;49.528;8.666;2024-03-08T00:06:31;31.50;;;24.10;;
5553;SDS011;2800;49.528;8.666;2024-03-08T00:08:57;32.50;;;23.80;;
5553;SDS011;2800;49.528;8.666;2024-03-08T00:11:23;29.60;;;22.50;;
5553;SDS011;2800;49.528;8.666;2024-03-08T00:13:51;31.57;;;23.23;;
5553;SDS011;2800;49.528;8.666;2024-03-08T00:16:17;29.07;;;22.30;;
5553;SDS011;2800;49.528;8.666;2024-03-08T00:18:44;31.33;;;22.20;;
5553;SDS011;2800;49.528;8.666;2024-03-08T00:21:10;30.87;;;20.93;;
5553;SDS011;2800;49.528;8.666;2024-03-08T00:23:36;29.40;;;22.30;;
5553;SDS011;2800;49.528;8.666;2024-03-08T00:26:02;34.73;;;23.33;;
5553;SDS011;2800;49.528;8.666;2024-03-08T00:28:29;34.57;;;23.23;;
5553;SDS011;2800;49.528;8.666;2024-03-08T00:30:56;30.67;;;23.47;;
5553;SDS011;2800;49.528;8.666;2024-03-08T00:33:21;28.93;;;22.47;;
5553;SDS011;2800;49.528;8.666;2024-03-08T00:35:46;32.60;;;24.30;;
5553;SDS011;2800;49.528;8.666;2024-03-08T00:38:12;31.60;;;23.87;;
5553;SDS011;2800;49.528;8.666;2024-03-08T00:40:38;30.33;;;23.40;;
5553;SDS011;2800;49.528;8.666;2024-03-08T00:43:05;35.23;;;23.40;;
5553;SDS011;2800;49.528;8.666;2024-03-08T00:45:31;31.00;;;21.80;;
5553;SDS011;2800;49.528;8.666;2024-03-08T00:47:56;30.73;;;23.93;;
5553;SDS011;2800;49.528;8.666;2024-03-08T00:50:22;31.10;;;21.93;;
5553;SDS011;2800;49.528;8.666;2024-03-08T00:52:47;31.00;;;23.93;;
5553;SDS011;2800;49.528;8.666;2024-03-08T00:55:13;29.50;;;22.60;;
5553;SDS011;2800;49.528;8.666;2024-03-08T00:57:39;29.23;;;21.67;;
5553;SDS011;2800;49.528;8.666;2024-03-08T01:00:05;30.67;;;24.07;;
5553;SDS011;2800;49.528;8.666;2024-03-08T01:02:34;32.33;;;24.63;;
5553;SDS011;2800;49.528;8.666;2024-03-08T01:05:00;30.97;;;23.60;;
5553;SDS011;2800;49.528;8.666;2024-03-08T01:07:26;30.30;;;22.60;;
5553;SDS011;2800;49.528;8.666;2024-03-08T01:09:52;30.50;;;22.63;;
5553;SDS011;2800;49.528;8.666;2024-03-08T01:12:17;30.90;;;22.67;;
5553;SDS011;2800;49.528;8.666;2024-03-08T01:14:43;32.57;;;23.17;;
5553;SDS011;2800;49.528;8.666;2024-03-08T01:17:08;30.37;;;22.40;;
5553;SDS011;2800;49.528;8.666;2024-03-08T01:19:34;29.50;;;22.50;;
5553;SDS011;2800;49.528;8.666;2024-03-08T01:22:00;32.17;;;23.73;;
5553;SDS011;2800;49.528;8.666;2024-03-08T01:24:26;30.93;;;23.73;;
5553;SDS011;2800;49.528;8.666;2024-03-08T01:26:51;32.17;;;23.50;;
5553;SDS011;2800;49.528;8.666;2024-03-08T01:29:17;29.73;;;22.13;;
5553;SDS011;2800;49.528;8.666;2024-03-08T01:31:42;32.87;;;23.97;;
5553;SDS011;2800;49.528;8.666;2024-03-08T01:34:08;26.73;;;21.00;;
5553;SDS011;2800;49.528;8.666;2024-03-08T01:36:33;27.00;;;22.00;;
5553;SDS011;2800;49.528;8.666;2024-03-08T01:38:59;29.40;;;22.40;;
5553;SDS011;2800;49.528;8.666;2024-03-08T01:41:24;33.40;;;23.57;;
5553;SDS011;2800;49.528;8.666;2024-03-08T01:43:50;34.00;;;23.47;;
5553;SDS011;2800;49.528;8.666;2024-03-08T01:46:17;31.70;;;22.63;;
5553;SDS011;2800;49.528;8.666;2024-03-08T01:48:44;33.40;;;23.13;;
5553;SDS011;2800;49.528;8.666;2024-03-08T01:51:10;29.07;;;22.23;;
5553;SDS011;2800;49.528;8.666;2024-03-08T01:53:37;28.20;;;21.33;;
5553;SDS011;2800;49.528;8.666;2024-03-08T01:56:03;28.27;;;22.20;;
5553;SDS011;2800;49.528;8.666;2024-03-08T01:58:30;29.87;;;22.50;;
5553;SDS011;2800;49.528;8.666;2024-03-08T02:00:57;29.80;;;21.60;;
5553;SDS011;2800;49.528;8.666;2024-03-08T02:03:24;30.17;;;21.57;;
5553;SDS011;2800;49.528;8.666;2024-03-08T02:05:50;30.90;;;21.07;;
5553;SDS011;2800;49.528;8.666;2024-03-08T02:08:16;27.50;;;21.13;;
5553;SDS011;2800;49.528;8.666;2024-03-08T02:10:46;33.27;;;22.40;;
5553;SDS011;2800;49.528;8.666;2024-03-08T02:13:12;31.00;;;21.97;;
5553;SDS011;2800;49.528;8.666;2024-03-08T02:15:56;26.67;;;21.47;;
5553;SDS011;2800;49.528;8.666;2024-03-08T02:18:29;29.23;;;22.13;;
5553;SDS011;2800;49.528;8.666;2024-03-08T02:20:55;27.97;;;21.40;;
5553;SDS011;2800;49.528;8.666;2024-03-08T02:23:22;30.13;;;23.03;;
5553;SDS011;2800;49.528;8.666;2024-03-08T02:25:49;29.80;;;22.30;;
5553;SDS011;2800;49.528;8.666;2024-03-08T02:28:15;27.83;;;20.17;;
5553;SDS011;2800;49.528;8.666;2024-03-08T02:30:43;29.90;;;21.93;;
5553;SDS011;2800;49.528;8.666;2024-03-08T02:33:09;30.37;;;22.83;;
5553;SDS011;2800;49.528;8.666;2024-03-08T02:35:35;28.63;;;22.07;;
5553;SDS011;2800;49.528;8.666;2024-03-08T02:38:01;27.20;;;21.03;;
5553;SDS011;2800;49.528;8.666;2024-03-08T02:40:28;28.57;;;21.20;;
5553;SDS011;2800;49.528;8.666;2024-03-08T02:42:54;25.83;;;20.57;;
5553;SDS011;2800;49.528;8.666;2024-03-08T02:45:19;25.53;;;20.77;;
5553;SDS011;2800;49.528;8.666;2024-03-08T02:47:45;29.50;;;21.47;;
5553;SDS011;2800;49.528;8.666;2024-03-08T02:50:11;30.90;;;21.60;;
5553;SDS011;2800;49.528;8.666;2024-03-08T02:52:37;27.17;;;20.90;;
5553;SDS011;2800;49.528;8.666;2024-03-08T02:55:02;27.20;;;21.23;;
5553;SDS011;2800;49.528;8.666;2024-03-08T02:57:31;26.57;;;21.40;;
5553;SDS011;2800;49.528;8.666;2024-03-08T02:59:56;26.97;;;20.57;;
5553;SDS011;2800;49.528;8.666;2024-03-08T03:02:24;26.10;;;20.80;;
5553;SDS011;2800;49.528;8.666;2024-03-08T03:04:51;28.60;;;21.67;;
5553;SDS011;2800;49.528;8.666;2024-03-08T03:07:17;32.67;;;21.00;;
5553;SDS011;2800;49.528;8.666;2024-03-08T03:09:42;29.10;;;21.00;;
5553;SDS011;2800;49.528;8.666;2024-03-08T03:12:08;26.33;;;21.10;;
5553;SDS011;2800;49.528;8.666;2024-03-08T03:14:35;29.30;;;21.20;;
5553;SDS011;2800;49.528;8.666;2024-03-08T03:17:03;29.13;;;21.60;;
5553;SDS011;2800;49.528;8.666;2024-03-08T03:19:29;30.93;;;22.03;;
5553;SDS011;2800;49.528;8.666;2024-03-08T03:21:55;31.80;;;23.07;;
5553;SDS011;2800;49.528;8.666;2024-03-08T03:24:20;30.10;;;21.63;;
5553;SDS011;2800;49.528;8.666;2024-03-08T03:26:46;28.97;;;20.93;;
5553;SDS011;2800;49.528;8.666;2024-03-08T03:29:13;35.50;;;23.37;;
5553;SDS011;2800;49.528;8.666;2024-03-08T03:31:40;28.47;;;21.30;;
5553;SDS011;2800;49.528;8.666;2024-03-08T03:34:06;31.77;;;22.40;;
5553;SDS011;2800;49.528;8.666;2024-03-08T03:36:33;34.30;;;22.53;;
5553;SDS011;2800;49.528;8.666;2024-03-08T03:39:00;27.87;;;21.13;;
5553;SDS011;2800;49.528;8.666;2024-03-08T03:41:41;30.27;;;21.87;;
5553;SDS011;2800;49.528;8.666;2024-03-08T03:44:07;29.20;;;22.70;;
5553;SDS011;2800;49.528;8.666;2024-03-08T03:46:33;28.93;;;21.67;;
5553;SDS011;2800;49.528;8.666;2024-03-08T03:48:59;30.43;;;22.93;;
5553;SDS011;2800;49.528;8.666;2024-03-08T03:51:24;29.47;;;21.60;;
5553;SDS011;2800;49.528;8.666;2024-03-08T03:53:50;31.63;;;24.37;;
5553;SDS011;2800;49.528;8.666;2024-03-08T03:56:16;28.97;;;21.37;;
5553;SDS011;2800;49.528;8.666;2024-03-08T03:58:42;29.80;;;22.27;;
5553;SDS011;2800;49.528;8.666;2024-03-08T04:01:07;29.30;;;21.70;;
5553;SDS011;2800;49.528;8.666;2024-03-08T04:03:33;31.63;;;23.30;;
5553;SDS011;2800;49.528;8.666;2024-03-08T04:05:58;31.57;;;23.93;;
5553;SDS011;2800;49.528;8.666;2024-03-08T04:08:24;31.40;;;22.40;;
5553;SDS011;2800;49.528;8.666;2024-03-08T04:10:50;32.20;;;23.43;;
5553;SDS011;2800;49.528;8.666;2024-03-08T04:13:16;34.70;;;23.67;;
5553;SDS011;2800;49.528;8.666;2024-03-08T04:15:41;31.00;;;23.60;;
5553;SDS011;2800;49.528;8.666;2024-03-08T04:18:09;31.10;;;24.20;;
5553;SDS011;2800;49.528;8.666;2024-03-08T04:20:34;30.20;;;22.63;;
5553;SDS011;2800;49.528;8.666;2024-03-08T04:23:00;34.10;;;24.63;;
5553;SDS011;2800;49.528;8.666;2024-03-08T04:25:27;32.20;;;24.77;;
5553;SDS011;2800;49.528;8.666;2024-03-08T04:27:52;45.30;;;27.40;;
5553;SDS011;2800;49.528;8.666;2024-03-08T04:30:18;32.17;;;24.43;;
5553;SDS011;2800;49.528;8.666;2024-03-08T04:32:46;31.60;;;23.20;;
5553;SDS011;2800;49.528;8.666;2024-03-08T04:35:12;34.10;;;23.83;;
5553;SDS011;2800;49.528;8.666;2024-03-08T04:37:38;41.63;;;25.27;;
5553;SDS011;2800;49.528;8.666;2024-03-08T04:40:04;34.97;;;25.13;;
5553;SDS011;2800;49.528;8.666;2024-03-08T04:42:30;35.40;;;24.73;;
5553;SDS011;2800;49.528;8.666;2024-03-08T04:44:57;35.53;;;25.07;;
5553;SDS011;2800;49.528;8.666;2024-03-08T04:47:23;31.87;;;23.00;;
5553;SDS011;2800;49.528;8.666;2024-03-08T04:49:49;33.03;;;24.33;;
5553;SDS011;2800;49.528;8.666;2024-03-08T04:52:15;36.10;;;24.63;;
5553;SDS011;2800;49.528;8.666;2024-03-08T04:54:41;33.40;;;24.73;;
5553;SDS011;2800;49.528;8.666;2024-03-08T04:57:07;44.20;;;28.73;;
5553;SDS011;2800;49.528;8.666;2024-03-08T04:59:33;38.87;;;25.90;;
5553;SDS011;2800;49.528;8.666;2024-03-08T05:01:58;35.40;;;23.03;;
5553;SDS011;2800;49.528;8.666;2024-03-08T05:04:24;33.50;;;23.93;;
5553;SDS011;2800;49.528;8.666;2024-03-08T05:06:50;43.10;;;28.90;;
5553;SDS011;2800;49.528;8.666;2024-03-08T05:09:15;37.33;;;25.03;;
5553;SDS011;2800;49.528;8.666;2024-03-08T05:11:44;39.37;;;25.33;;
5553;SDS011;2800;49.528;8.666;2024-03-08T05:14:10;32.03;;;24.00;;
5553;SDS011;2800;49.528;8.666;2024-03-08T05:16:41;39.57;;;22.90;;
5553;SDS011;2800;49.528;8.666;2024-03-08T05:19:19;34.70;;;24.90;;
5553;SDS011;2800;49.528;8.666;2024-03-08T05:21:46;30.60;;;23.43;;
5553;SDS011;2800;49.528;8.666;2024-03-08T05:24:12;35.00;;;25.03;;
5553;SDS011;2800;49.528;8.666;2024-03-08T05:26:39;35.80;;;25.60;;
5553;SDS011;2800;49.528;8.666;2024-03-08T05:29:05;30.77;;;23.93;;
5553;SDS011;2800;49.528;8.666;2024-03-08T05:31:32;34.20;;;24.83;;
5553;SDS011;2800;49.528;8.666;2024-03-08T05:34:07;38.93;;;25.20;;
5553;SDS011;2800;49.528;8.666;2024-03-08T05:36:35;40.13;;;26.17;;
5553;SDS011;2800;49.528;8.666;2024-03-08T05:39:00;33.43;;;25.37;;
5553;SDS011;2800;49.528;8.666;2024-03-08T05:41:26;35.63;;;24.70;;
5553;SDS011;2800;49.528;8.666;2024-03-08T05:43:51;37.57;;;28.67;;
5553;SDS011;2800;49.528;8.666;2024-03-08T05:46:17;35.53;;;27.07;;
5553;SDS011;2800;49.528;8.666;2024-03-08T05:48:43;41.90;;;27.07;;
5553;SDS011;2800;49.528;8.666;2024-03-08T05:51:09;33.77;;;25.40;;
5553;SDS011;2800;49.528;8.666;2024-03-08T05:53:34;34.90;;;25.47;;
5553;SDS011;2800;49.528;8.666;2024-03-08T05:56:00;32.27;;;25.43;;
5553;SDS011;2800;49.528;8.666;2024-03-08T05:58:27;30.40;;;23.60;;
5553;SDS011;2800;49.528;8.666;2024-03-08T06:00:55;34.60;;;24.60;;
5553;SDS011;2800;49.528;8.666;2024-03-08T06:03:20;31.13;;;23.63;;
5553;SDS011;2800;49.528;8.666;2024-03-08T06:05:46;31.20;;;24.90;;
5553;SDS011;2800;49.528;8.666;2024-03-08T06:08:13;33.87;;;24.77;;
5553;SDS011;2800;49.528;8.666;2024-03-08T06:10:39;32.20;;;24.67;;
5553;SDS011;2800;49.528;8.666;2024-03-08T06:13:05;29.57;;;22.57;;
5553;SDS011;2800;49.528;8.666;2024-03-08T06:15:31;37.20;;;24.60;;
5553;SDS011;2800;49.528;8.666;2024-03-08T06:17:57;31.33;;;23.43;;
5553;SDS011;2800;49.528;8.666;2024-03-08T06:20:22;32.80;;;25.03;;
5553;SDS011;2800;49.528;8.666;2024-03-08T06:22:51;32.70;;;23.40;;
5553;SDS011;2800;49.528;8.666;2024-03-08T06:25:17;32.43;;;23.10;;
5553;SDS011;2800;49.528;8.666;2024-03-08T06:27:43;32.97;;;25.70;;
5553;SDS011;2800;49.528;8.666;2024-03-08T06:30:09;31.57;;;24.03;;
5553;SDS011;2800;49.528;8.666;2024-03-08T06:32:35;33.77;;;25.67;;
5553;SDS011;2800;49.528;8.666;2024-03-08T06:35:02;32.73;;;24.63;;
5553;SDS011;2800;49.528;8.666;2024-03-08T06:37:34;32.07;;;24.23;;
5553;SDS011;2800;49.528;8.666;2024-03-08T06:40:00;33.77;;;24.27;;
5553;SDS011;2800;49.528;8.666;2024-03-08T06:42:29;34.30;;;23.87;;
5553;SDS011;2800;49.528;8.666;2024-03-08T06:44:58;33.37;;;23.60;;
5553;SDS011;2800;49.528;8.666;2024-03-08T06:47:29;29.00;;;21.80;;
5553;SDS011;2800;49.528;8.666;2024-03-08T06:49:55;32.80;;;23.83;;
5553;SDS011;2800;49.528;8.666;2024-03-08T06:52:20;28.40;;;22.23;;
5553;SDS011;2800;49.528;8.666;2024-03-08T06:54:47;32.30;;;26.47;;
5553;SDS011;2800;49.528;8.666;2024-03-08T06:57:12;29.07;;;22.80;;
5553;SDS011;2800;49.528;8.666;2024-03-08T06:59:38;29.10;;;22.43;;
5553;SDS011;2800;49.528;8.666;2024-03-08T07:02:04;30.43;;;23.80;;
5553;SDS011;2800;49.528;8.666;2024-03-08T07:04:30;30.53;;;22.30;;
5553;SDS011;2800;49.528;8.666;2024-03-08T07:06:56;27.50;;;23.37;;
5553;SDS011;2800;49.528;8.666;2024-03-08T07:09:22;28.20;;;23.17;;
5553;SDS011;2800;49.528;8.666;2024-03-08T07:11:51;30.50;;;23.00;;
5553;SDS011;2800;49.528;8.666;2024-03-08T07:14:20;27.50;;;22.30;;
5553;SDS011;2800;49.528;8.666;2024-03-08T07:16:47;31.53;;;23.07;;
5553;SDS011;2800;49.528;8.666;2024-03-08T07:19:12;30.20;;;21.90;;
5553;SDS011;2800;49.528;8.666;2024-03-08T07:21:38;29.80;;;23.03;;
5553;SDS011;2800;49.528;8.666;2024-03-08T07:24:03;29.60;;;23.70;;
5553;SDS011;2800;49.528;8.666;2024-03-08T07:26:46;26.47;;;21.33;;
5553;SDS011;2800;49.528;8.666;2024-03-08T07:29:15;31.63;;;23.70;;
5553;SDS011;2800;49.528;8.666;2024-03-08T07:31:40;28.10;;;23.60;;
5553;SDS011;2800;49.528;8.666;2024-03-08T07:34:06;30.57;;;23.47;;
5553;SDS011;2800;49.528;8.666;2024-03-08T07:36:32;30.10;;;22.93;;
5553;SDS011;2800;49.528;8.666;2024-03-08T07:38:59;28.53;;;22.50;;
5553;SDS011;2800;49.528;8.666;2024-03-08T07:41:24;31.33;;;23.80;;
5553;SDS011;2800;49.528;8.666;2024-03-08T07:43:50;30.03;;;22.57;;
5553;SDS011;2800;49.528;8.666;2024-03-08T07:46:17;26.87;;;21.47;;
5553;SDS011;2800;49.528;8.666;2024-03-08T07:48:43;29.00;;;22.57;;
5553;SDS011;2800;49.528;8.666;2024-03-08T07:51:09;28.30;;;22.47;;
5553;SDS011;2800;49.528;8.666;2024-03-08T07:53:37;27.27;;;22.20;;
5553;SDS011;2800;49.528;8.666;2024-03-08T07:56:03;29.63;;;23.03;;
5553;SDS011;2800;49.528;8.666;2024-03-08T07:58:30;29.10;;;22.90;;
5553;SDS011;2800;49.528;8.666;2024-03-08T08:00:55;28.60;;;22.47;;
5553;SDS011;2800;49.528;8.666;2024-03-08T08:03:21;28.57;;;22.23;;
5553;SDS011;2800;49.528;8.666;2024-03-08T08:05:47;29.17;;;22.30;;
5553;SDS011;2800;49.528;8.666;2024-03-08T08:08:14;28.77;;;24.00;;
5553;SDS011;2800;49.528;8.666;2024-03-08T08:10:40;29.53;;;23.27;;
5553;SDS011;2800;49.528;8.666;2024-03-08T08:13:05;29.63;;;21.70;;
5553;SDS011;2800;49.528;8.666;2024-03-08T08:15:31;25.70;;;20.73;;
5553;SDS011;2800;49.528;8.666;2024-03-08T08:17:59;26.90;;;22.07;;
5553;SDS011;2800;49.528;8.666;2024-03-08T08:20:25;29.27;;;22.90;;
5553;SDS011;2800;49.528;8.666;2024-03-08T08:22:51;27.50;;;21.70;;
5553;SDS011;2800;49.528;8.666;2024-03-08T08:25:16;27.67;;;21.80;;
5553;SDS011;2800;49.528;8.666;2024-03-08T08:27:45;24.87;;;19.97;;
5553;SDS011;2800;49.528;8.666;2024-03-08T08:30:11;24.30;;;20.40;;
5553;SDS011;2800;49.528;8.666;2024-03-08T08:32:37;27.80;;;22.20;;
5553;SDS011;2800;49.528;8.666;2024-03-08T08:35:09;24.30;;;20.57;;
5553;SDS011;2800;49.528;8.666;2024-03-08T08:37:38;26.80;;;20.90;;
5553;SDS011;2800;49.528;8.666;2024-03-08T08:40:05;26.50;;;20.20;;
5553;SDS011;2800;49.528;8.666;2024-03-08T08:42:35;27.60;;;22.47;;
5553;SDS011;2800;49.528;8.666;2024-03-08T08:45:01;26.87;;;22.03;;
5553;SDS011;2800;49.528;8.666;2024-03-08T08:47:27;28.00;;;21.20;;
5553;SDS011;2800;49.528;8.666;2024-03-08T08:49:52;26.73;;;21.73;;
5553;SDS011;2800;49.528;8.666;2024-03-08T08:52:19;27.77;;;21.90;;
5553;SDS011;2800;49.528;8.666;2024-03-08T08:54:44;29.20;;;22.03;;
5553;SDS011;2800;49.528;8.666;2024-03-08T08:57:10;27.67;;;19.23;;
5553;SDS011;2800;49.528;8.666;2024-03-08T08:59:35;26.77;;;21.50;;
5553;SDS011;2800;49.528;8.666;2024-03-08T09:02:02;25.10;;;20.70;;
5553;SDS011;2800;49.528;8.666;2024-03-08T09:04:28;28.80;;;21.93;;
5553;SDS011;2800;49.528;8.666;2024-03-08T09:06:55;28.70;;;22.00;;
5553;SDS011;2800;49.528;8.666;2024-03-08T09:09:21;27.90;;;21.70;;
5553;SDS011;2800;49.528;8.666;2024-03-08T09:11:47;29.20;;;21.23;;
5553;SDS011;2800;49.528;8.666;2024-03-08T09:14:14;27.63;;;20.07;;
5553;SDS011;2800;49.528;8.666;2024-03-08T09:16:40;27.00;;;20.80;;
5553;SDS011;2800;49.528;8.666;2024-03-08T09:19:05;32.00;;;20.57;;
5553;SDS011;2800;49.528;8.666;2024-03-08T09:21:32;26.07;;;21.40;;
5553;SDS011;2800;49.528;8.666;2024-03-08T09:24:00;26.13;;;20.67;;
5553;SDS011;2800;49.528;8.666;2024-03-08T09:26:26;25.37;;;20.20;;
5553;SDS011;2800;49.528;8.666;2024-03-08T09:28:52;26.67;;;20.43;;
5553;SDS011;2800;49.528;8.666;2024-03-08T09:31:19;26.77;;;20.13;;
5553;SDS011;2800;49.528;8.666;2024-03-08T09:33:45;26.03;;;20.90;;
5553;SDS011;2800;49.528;8.666;2024-03-08T09:36:11;23.90;;;19.50;;
5553;SDS011;2800;49.528;8.666;2024-03-08T09:38:39;26.50;;;19.60;;
5553;SDS011;2800;49.528;8.666;2024-03-08T09:41:04;25.17;;;18.50;;
5553;SDS011;2800;49.528;8.666;2024-03-08T09:43:30;24.47;;;18.53;;
5553;SDS011;2800;49.528;8.666;2024-03-08T09:45:56;24.80;;;18.60;;
5553;SDS011;2800;49.528;8.666;2024-03-08T09:48:22;25.10;;;19.17;;
5553;SDS011;2800;49.528;8.666;2024-03-08T09:50:48;26.80;;;19.50;;
5553;SDS011;2800;49.528;8.666;2024-03-08T09:53:14;26.33;;;20.70;;
5553;SDS011;2800;49.528;8.666;2024-03-08T09:55:41;27.80;;;19.80;;
5553;SDS011;2800;49.528;8.666;2024-03-08T09:58:11;27.40;;;19.70;;
5553;SDS011;2800;49.528;8.666;2024-03-08T10:00:56;27.17;;;20.13;;
5553;SDS011;2800;49.528;8.666;2024-03-08T10:03:22;24.80;;;19.10;;
5553;SDS011;2800;49.528;8.666;2024-03-08T10:05:48;28.47;;;20.50;;
5553;SDS011;2800;49.528;8.666;2024-03-08T10:08:13;27.70;;;19.87;;
5553;SDS011;2800;49.528;8.666;2024-03-08T10:10:39;25.40;;;18.77;;
5553;SDS011;2800;49.528;8.666;2024-03-08T10:13:08;25.30;;;18.93;;
5553;SDS011;2800;49.528;8.666;2024-03-08T10:15:35;27.20;;;19.00;;
5553;SDS011;2800;49.528;8.666;2024-03-08T10:18:01;24.20;;;19.03;;
5553;SDS011;2800;49.528;8.666;2024-03-08T10:20:27;24.80;;;18.60;;
5553;SDS011;2800;49.528;8.666;2024-03-08T10:22:58;26.07;;;20.00;;
5553;SDS011;2800;49.528;8.666;2024-03-08T10:25:24;26.70;;;17.77;;
5553;SDS011;2800;49.528;8.666;2024-03-08T10:27:50;26.93;;;19.73;;
5553;SDS011;2800;49.528;8.666;2024-03-08T10:30:16;25.73;;;17.97;;
5553;SDS011;2800;49.528;8.666;2024-03-08T10:32:45;24.73;;;17.23;;
5553;SDS011;2800;49.528;8.666;2024-03-08T10:35:11;24.73;;;18.47;;
5553;SDS011;2800;49.528;8.666;2024-03-08T10:37:43;29.90;;;18.00;;
5553;SDS011;2800;49.528;8.666;2024-03-08T10:40:18;27.70;;;19.73;;
5553;SDS011;2800;49.528;8.666;2024-03-08T10:42:54;22.30;;;17.63;;
5553;SDS011;2800;49.528;8.666;2024-03-08T10:51:02;23.67;;;18.37;;
5553;SDS011;2800;49.528;8.666;2024-03-08T10:53:28;23.73;;;17.10;;
5553;SDS011;2800;49.528;8.666;2024-03-08T10:55:56;22.17;;;17.23;;
5553;SDS011;2800;49.528;8.666;2024-03-08T10:58:23;26.20;;;18.63;;
5553;SDS011;2800;49.528;8.666;2024-03-08T11:00:54;23.93;;;17.97;;
5553;SDS011;2800;49.528;8.666;2024-03-08T11:06:05;22.87;;;16.13;;
5553;SDS011;2800;49.528;8.666;2024-03-08T11:08:36;26.70;;;17.70;;
5553;SDS011;2800;49.528;8.666;2024-03-08T11:11:04;23.73;;;16.40;;
5553;SDS011;2800;49.528;8.666;2024-03-08T11:16:02;24.57;;;17.03;;
5553;SDS011;2800;49.528;8.666;2024-03-08T11:18:32;22.07;;;16.50;;
5553;SDS011;2800;49.528;8.666;2024-03-08T11:21:02;21.83;;;15.80;;
5553;SDS011;2800;49.528;8.666;2024-03-08T11:23:31;24.00;;;17.40;;
5553;SDS011;2800;49.528;8.666;2024-03-08T11:25:58;27.47;;;18.87;;
5553;SDS011;2800;49.528;8.666;2024-03-08T11:28:24;22.67;;;16.70;;
5553;SDS011;2800;49.528;8.666;2024-03-08T11:33:45;20.73;;;16.30;;
5553;SDS011;2800;49.528;8.666;2024-03-08T11:36:13;22.00;;;16.83;;
5553;SDS011;2800;49.528;8.666;2024-03-08T11:38:46;21.77;;;16.60;;
5553;SDS011;2800;49.528;8.666;2024-03-08T11:41:21;21.93;;;15.47;;
5553;SDS011;2800;49.528;8.666;2024-03-08T11:43:48;23.60;;;17.43;;
5553;SDS011;2800;49.528;8.666;2024-03-08T11:46:16;24.83;;;17.37;;
5553;SDS011;2800;49.528;8.666;2024-03-08T11:48:47;22.77;;;17.20;;
5553;SDS011;2800;49.528;8.666;2024-03-08T11:51:13;26.13;;;16.50;;
5553;SDS011;2800;49.528;8.666;2024-03-08T11:53:40;22.90;;;16.93;;
5553;SDS011;2800;49.528;8.666;2024-03-08T11:56:09;24.93;;;17.03;;
5553;SDS011;2800;49.528;8.666;2024-03-08T11:58:36;20.90;;;15.17;;
5553;SDS011;2800;49.528;8.666;2024-03-08T12:01:03;19.60;;;14.57;;
5553;SDS011;2800;49.528;8.666;2024-03-08T12:03:30;19.97;;;14.90;;
5553;SDS011;2800;49.528;8.666;2024-03-08T12:05:58;21.80;;;16.30;;
5553;SDS011;2800;49.528;8.666;2024-03-08T12:08:25;21.53;;;15.90;;
5553;SDS011;2800;49.528;8.666;2024-03-08T12:10:53;22.67;;;16.00;;
5553;SDS011;2800;49.528;8.666;2024-03-08T12:13:24;23.00;;;16.17;;
5553;SDS011;2800;49.528;8.666;2024-03-08T12:15:55;19.40;;;13.97;;
5553;SDS011;2800;49.528;8.666;2024-03-08T12:18:23;20.83;;;14.90;;
5553;SDS011;2800;49.528;8.666;2024-03-08T12:21:03;22.30;;;15.53;;
5553;SDS011;2800;49.528;8.666;2024-03-08T12:23:37;24.80;;;16.90;;
5553;SDS011;2800;49.528;8.666;2024-03-08T12:26:25;21.90;;;15.33;;
5553;SDS011;2800;49.528;8.666;2024-03-08T12:28:51;24.23;;;16.10;;
5553;SDS011;2800;49.528;8.666;2024-03-08T12:31:17;23.50;;;16.30;;
5553;SDS011;2800;49.528;8.666;2024-03-08T12:33:54;20.87;;;15.40;;
5553;SDS011;2800;49.528;8.666;2024-03-08T12:36:24;22.93;;;15.13;;
5553;SDS011;2800;49.528;8.666;2024-03-08T12:38:50;21.03;;;15.97;;
5553;SDS011;2800;49.528;8.666;2024-03-08T12:41:19;20.57;;;15.60;;
5553;SDS011;2800;49.528;8.666;2024-03-08T12:43:46;22.87;;;16.33;;
5553;SDS011;2800;49.528;8.666;2024-03-08T12:46:15;23.67;;;15.73;;
5553;SDS011;2800;49.528;8.666;2024-03-08T12:48:41;19.57;;;15.50;;
5553;SDS011;2800;49.528;8.666;2024-03-08T12:51:11;20.83;;;15.30;;
5553;SDS011;2800;49.528;8.666;2024-03-08T12:53:41;19.50;;;14.97;;
5553;SDS011;2800;49.528;8.666;2024-03-08T12:56:10;23.17;;;15.57;;
5553;SDS011;2800;49.528;8.666;2024-03-08T12:58:44;19.53;;;15.13;;
5553;SDS011;2800;49.528;8.666;2024-03-08T13:01:10;20.00;;;14.50;;
5553;SDS011;2800;49.528;8.666;2024-03-08T13:03:37;20.20;;;14.10;;
5553;SDS011;2800;49.528;8.666;2024-03-08T13:06:03;25.10;;;15.13;;
5553;SDS011;2800;49.528;8.666;2024-03-08T13:08:36;23.10;;;15.30;;
5553;SDS011;2800;49.528;8.666;2024-03-08T13:11:05;22.13;;;16.00;;
5553;SDS011;2800;49.528;8.666;2024-03-08T13:13:33;22.13;;;15.30;;
5553;SDS011;2800;49.528;8.666;2024-03-08T13:16:01;19.87;;;15.00;;
5553;SDS011;2800;49.528;8.666;2024-03-08T13:18:27;22.20;;;16.20;;
5553;SDS011;2800;49.528;8.666;2024-03-08T13:20:53;19.00;;;14.90;;
5553;SDS011;2800;49.528;8.666;2024-03-08T13:23:19;18.27;;;14.60;;
5553;SDS011;2800;49.528;8.666;2024-03-08T13:25:45;20.03;;;15.70;;
5553;SDS011;2800;49.528;8.666;2024-03-08T13:28:14;19.23;;;15.07;;
5553;SDS011;2800;49.528;8.666;2024-03-08T13:30:40;21.60;;;15.90;;
5553;SDS011;2800;49.528;8.666;2024-03-08T13:33:06;21.37;;;15.77;;
5553;SDS011;2800;49.528;8.666;2024-03-08T13:35:32;19.67;;;15.10;;
5553;SDS011;2800;49.528;8.666;2024-03-08T13:37:59;22.20;;;15.33;;
5553;SDS011;2800;49.528;8.666;2024-03-08T13:40:26;20.43;;;15.20;;
5553;SDS011;2800;49.528;8.666;2024-03-08T13:42:52;21.13;;;15.77;;
5553;SDS011;2800;49.528;8.666;2024-03-08T13:45:17;20.87;;;15.80;;
5553;SDS011;2800;49.528;8.666;2024-03-08T13:47:47;20.23;;;14.50;;
5553;SDS011;2800;49.528;8.666;2024-03-08T13:50:14;20.60;;;14.20;;
5553;SDS011;2800;49.528;8.666;2024-03-08T13:52:46;18.30;;;13.30;;
5553;SDS011;2800;49.528;8.666;2024-03-08T13:55:16;23.13;;;15.27;;
5553;SDS011;2800;49.528;8.666;2024-03-08T13:57:42;21.17;;;16.23;;
5553;SDS011;2800;49.528;8.666;2024-03-08T14:00:10;22.20;;;14.37;;
5553;SDS011;2800;49.528;8.666;2024-03-08T14:02:36;19.30;;;14.60;;
5553;SDS011;2800;49.528;8.666;2024-03-08T14:05:02;20.37;;;14.70;;
5553;SDS011;2800;49.528;8.666;2024-03-08T14:07:28;18.20;;;13.77;;
5553;SDS011;2800;49.528;8.666;2024-03-08T14:09:56;20.33;;;14.80;;
5553;SDS011;2800;49.528;8.666;2024-03-08T14:12:22;19.93;;;14.60;;
5553;SDS011;2800;49.528;8.666;2024-03-08T14:14:51;23.67;;;15.50;;
5553;SDS011;2800;49.528;8.666;2024-03-08T14:17:17;20.60;;;13.93;;
5553;SDS011;2800;49.528;8.666;2024-03-08T14:19:43;19.20;;;14.47;;
5553;SDS011;2800;49.528;8.666;2024-03-08T14:22:08;22.40;;;15.33;;
5553;SDS011;2800;49.528;8.666;2024-03-08T14:24:38;19.80;;;15.10;;
5553;SDS011;2800;49.528;8.666;2024-03-08T14:27:04;21.90;;;14.77;;
5553;SDS011;2800;49.528;8.666;2024-03-08T14:29:33;20.20;;;14.37;;
5553;SDS011;2800;49.528;8.666;2024-03-08T14:31:59;20.07;;;14.60;;
5553;SDS011;2800;49.528;8.666;2024-03-08T14:34:25;23.97;;;15.00;;
5553;SDS011;2800;49.528;8.666;2024-03-08T14:36:52;19.20;;;14.80;;
5553;SDS011;2800;49.528;8.666;2024-03-08T14:39:18;18.70;;;14.00;;
5553;SDS011;2800;49.528;8.666;2024-03-08T14:41:47;20.80;;;14.60;;
5553;SDS011;2800;49.528;8.666;2024-03-08T14:44:13;21.90;;;13.90;;
5553;SDS011;2800;49.528;8.666;2024-03-08T14:46:38;18.00;;;13.50;;
5553;SDS011;2800;49.528;8.666;2024-03-08T14:49:04;23.27;;;13.60;;
5553;SDS011;2800;49.528;8.666;2024-03-08T14:51:29;18.70;;;13.90;;
5553;SDS011;2800;49.528;8.666;2024-03-08T14:53:56;19.50;;;14.53;;
5553;SDS011;2800;49.528;8.666;2024-03-08T14:56:22;75.43;;;46.47;;
5553;SDS011;2800;49.528;8.666;2024-03-08T14:58:47;28.97;;;20.80;;
5553;SDS011;2800;49.528;8.666;2024-03-08T15:01:14;25.70;;;17.30;;